createdAt,value
2023-01-07T00:01:45.737Z,61535.28
2023-01-07T00:04:17.060Z,61528.84
2023-01-07T00:06:47.385Z,61531.41
2023-01-07T00:09:17.714Z,61527.66
2023-01-07T00:11:46.981Z,61526.28
2023-01-07T00:14:16.484Z,61535.69
2023-01-07T00:16:46.445Z,61532.47
2023-01-07T00:19:17.119Z,61532.47
2023-01-07T00:21:45.876Z,61530.97
2023-01-07T00:24:15.258Z,61534.00
2023-01-07T00:26:44.212Z,61522.50
2023-01-07T00:29:12.991Z,61523.06
2023-01-07T00:31:42.324Z,61533.56
2023-01-07T00:34:13.029Z,61524.00
2023-01-07T00:36:45.017Z,61526.69
2023-01-07T00:39:17.265Z,61529.91
2023-01-07T00:42:07.573Z,61521.84
2023-01-07T00:44:37.986Z,61524.97
2023-01-07T00:47:06.664Z,61527.09
2023-01-07T00:49:36.511Z,61533.56
2023-01-07T00:52:05.316Z,61525.63
2023-01-07T00:54:33.775Z,61521.31
2023-01-07T00:57:02.157Z,61522.16
2023-01-07T00:59:30.532Z,61519.06
2023-01-07T01:01:58.994Z,61515.41
2023-01-07T01:04:27.391Z,61519.84
2023-01-07T01:06:57.182Z,61518.63
2023-01-07T01:09:26.458Z,61522.81
2023-01-07T01:11:54.836Z,61509.09
2023-01-07T01:14:23.328Z,61520.78
2023-01-07T01:16:51.864Z,61521.31
2023-01-07T01:19:20.243Z,61527.09
2023-01-07T01:21:48.677Z,61522.28
2023-01-07T01:24:18.604Z,61524.00
2023-01-07T01:26:48.174Z,61524.97
2023-01-07T01:29:16.576Z,61533.34
2023-01-07T01:31:45.240Z,61531.84
2023-01-07T01:34:14.451Z,61522.41
2023-01-07T01:36:43.410Z,61525.50
2023-01-07T01:39:11.890Z,61532.47
2023-01-07T01:41:42.087Z,61530.31
2023-01-07T01:44:49.714Z,61539.25
2023-01-07T01:47:38.018Z,61533.13
2023-01-07T01:50:15.190Z,61538.28
2023-01-07T01:52:49.827Z,61529.25
2023-01-07T01:55:25.328Z,61523.47
2023-01-07T01:58:02.094Z,61529.78
2023-01-07T02:00:31.408Z,61533.00
2023-01-07T02:03:00.900Z,61534.19
2023-01-07T02:05:34.893Z,61533.00
2023-01-07T02:08:03.216Z,61531.63
2023-01-07T02:10:33.225Z,61527.22
2023-01-07T02:13:26.801Z,61529.50
2023-01-07T02:16:01.967Z,61527.75
2023-01-07T02:18:53.743Z,61532.06
2023-01-07T02:21:39.768Z,61534.00
2023-01-07T02:24:57.600Z,61530.31
2023-01-07T02:27:49.222Z,61532.59
2023-01-07T02:30:52.038Z,61536.34
2023-01-07T02:33:41.539Z,61527.75
2023-01-07T02:36:25.751Z,61532.06
2023-01-07T02:39:19.891Z,61533.13
2023-01-07T02:41:58.034Z,61537.84
2023-01-07T02:44:36.602Z,61537.84
2023-01-07T02:47:14.213Z,61533.00
2023-01-07T02:49:44.711Z,61534.19
2023-01-07T02:52:23.608Z,61538.28
2023-01-07T02:54:57.666Z,61530.31
2023-01-07T02:58:13.692Z,61527.09
2023-01-07T03:01:28.466Z,61531.84
2023-01-07T03:04:29.212Z,61517.56
2023-01-07T03:07:24.773Z,61529.25
2023-01-07T03:10:02.655Z,61524.53
2023-01-07T03:12:37.794Z,61527.97
2023-01-07T03:15:14.005Z,61520.25
2023-01-07T03:17:47.463Z,61526.34
2023-01-07T03:20:18.441Z,61524.97
2023-01-07T03:22:49.095Z,61527.09
2023-01-07T03:25:22.184Z,61521.63
2023-01-07T03:27:54.254Z,61522.81
2023-01-07T03:30:23.964Z,61524.97
2023-01-07T03:32:59.657Z,61520.13
2023-01-07T03:35:32.268Z,61517.97
2023-01-07T03:38:04.738Z,61519.16
2023-01-07T03:40:33.933Z,61521.19
2023-01-07T03:43:01.476Z,61517.03
2023-01-07T03:45:30.675Z,61508.84
2023-01-07T03:48:01.137Z,61504.13
2023-01-07T03:50:37.351Z,61512.31
2023-01-07T03:53:07.311Z,61523.25
2023-01-07T03:55:37.914Z,61514.88
2023-01-07T03:58:06.421Z,61517.69
2023-01-07T04:00:34.909Z,61524.97
2023-01-07T04:03:13.705Z,61521.44
2023-01-07T04:05:45.536Z,61525.41
2023-01-07T04:08:16.070Z,61521.31
2023-01-07T04:10:44.962Z,61523.34
2023-01-07T04:13:14.804Z,61524.41
2023-01-07T04:15:46.129Z,61522.41
2023-01-07T04:18:14.705Z,61526.56
2023-01-07T04:20:48.019Z,61530.22
2023-01-07T04:23:18.943Z,61522.28
2023-01-07T04:25:50.363Z,61517.03
2023-01-07T04:28:23.054Z,61517.44
2023-01-07T04:30:52.378Z,61511.66
2023-01-07T04:33:21.563Z,61515.72
2023-01-07T04:35:50.506Z,61509.94
2023-01-07T04:38:21.325Z,61503.50
2023-01-07T04:40:50.018Z,61497.16
2023-01-07T04:43:19.061Z,61498.34
2023-01-07T04:45:47.617Z,61504.56
2023-01-07T04:48:18.062Z,61498.75
2023-01-07T04:50:48.899Z,61504.03
2023-01-07T04:53:18.275Z,61505.50
2023-01-07T04:55:49.536Z,61500.38
2023-01-07T04:58:18.946Z,61500.38
2023-01-07T05:00:49.432Z,61505.63
2023-01-07T05:03:19.909Z,61498.34
2023-01-07T05:05:49.286Z,61497.03
2023-01-07T05:08:18.851Z,61490.59
2023-01-07T05:10:51.282Z,61483.63
2023-01-07T05:13:21.676Z,61491.66
2023-01-07T05:15:50.708Z,61483.19
2023-01-07T05:18:21.058Z,61502.41
2023-01-07T05:20:49.517Z,61497.69
2023-01-07T05:23:18.089Z,61511.97
2023-01-07T05:25:46.882Z,61509.28
2023-01-07T05:28:16.799Z,61529.69
2023-01-07T05:30:45.340Z,61524.53
2023-01-07T05:33:14.222Z,61540.53
2023-01-07T05:35:43.505Z,61563.09
2023-01-07T05:38:11.915Z,61555.47
2023-01-07T05:40:42.799Z,61604.44
2023-01-07T05:43:12.511Z,61584.69
2023-01-07T05:45:45.200Z,61564.81
2023-01-07T05:48:14.472Z,61548.06
2023-01-07T05:50:43.256Z,61547.81
2023-01-07T05:53:11.665Z,61552.34
2023-01-07T05:55:40.333Z,61544.28
2023-01-07T05:58:09.308Z,61553.31
2023-01-07T06:00:38.101Z,61527.09
2023-01-07T06:03:07.955Z,61520.66
2023-01-07T06:05:36.311Z,61507.91
2023-01-07T06:08:04.816Z,61510.25
2023-01-07T06:10:33.530Z,61499.84
2023-01-07T06:13:02.221Z,61493.81
2023-01-07T06:15:31.267Z,61486.53
2023-01-07T06:17:59.734Z,61484.16
2023-01-07T06:20:29.751Z,61474.72
2023-01-07T06:22:58.224Z,61480.28
2023-01-07T06:25:26.636Z,61483.06
2023-01-07T06:27:55.036Z,61482.00
2023-01-07T06:30:23.468Z,61473.66
2023-01-07T06:32:51.860Z,61476.22
2023-01-07T06:35:20.377Z,61475.16
2023-01-07T06:37:50.192Z,61461.84
2023-01-07T06:40:18.839Z,61461.19
2023-01-07T06:42:47.213Z,61455.72
2023-01-07T06:45:15.628Z,61459.88
2023-01-07T06:47:43.973Z,61460.53
2023-01-07T06:50:12.895Z,61454.09
2023-01-07T06:52:41.313Z,61447.66
2023-01-07T06:55:11.883Z,61454.09
2023-01-07T06:57:40.310Z,61439.75
2023-01-07T07:00:10.577Z,61445.81
2023-01-07T07:02:39.017Z,61435.88
2023-01-07T07:05:08.015Z,61434.25
2023-01-07T07:07:36.411Z,61441.88
2023-01-07T07:10:07.575Z,61451.41
2023-01-07T07:12:38.102Z,61450.88
2023-01-07T07:15:08.524Z,61457.31
2023-01-07T07:17:36.943Z,61457.97
2023-01-07T07:20:06.551Z,61461.19
2023-01-07T07:22:34.958Z,61460.78
2023-01-07T07:25:03.330Z,61458.91
2023-01-07T07:27:31.717Z,61458.81
2023-01-07T07:30:01.532Z,61457.97
2023-01-07T07:32:29.932Z,61470.19
2023-01-07T07:34:58.732Z,61467.50
2023-01-07T07:37:27.269Z,61475.97
2023-01-07T07:39:55.685Z,61480.09
2023-01-07T07:42:24.137Z,61477.28
2023-01-07T07:44:52.668Z,61478.50
2023-01-07T07:47:22.697Z,61476.22
2023-01-07T07:49:51.340Z,61468.69
2023-01-07T07:52:20.222Z,61475.56
2023-01-07T07:54:48.597Z,61488.84
2023-01-07T07:57:16.963Z,61487.50
2023-01-07T07:59:45.426Z,61486.97
2023-01-07T08:02:15.083Z,61497.03
2023-01-07T08:04:44.901Z,61497.69
2023-01-07T08:07:14.217Z,61501.34
2023-01-07T08:10:00.947Z,61502.41
2023-01-07T08:12:29.314Z,61493.94
2023-01-07T08:14:58.548Z,61495.53
2023-01-07T08:17:26.979Z,61492.75
2023-01-07T08:19:56.782Z,61501.44
2023-01-07T08:22:25.215Z,61499.19
2023-01-07T08:24:53.635Z,61500.50
2023-01-07T08:27:22.484Z,61494.47
2023-01-07T08:29:50.879Z,61500.91
2023-01-07T08:32:19.355Z,61509.81
2023-01-07T08:34:47.766Z,61510.38
2023-01-07T08:37:17.756Z,61492.97
2023-01-07T08:39:46.290Z,61510.03
2023-01-07T08:42:14.792Z,61507.25
2023-01-07T08:44:44.007Z,61511.84
2023-01-07T08:47:12.327Z,61521.09
2023-01-07T08:49:40.709Z,61512.72
2023-01-07T08:52:09.093Z,61514.88
2023-01-07T08:54:38.938Z,61518.75
2023-01-07T08:57:07.356Z,61523.34
2023-01-07T08:59:35.725Z,61527.66
2023-01-07T09:02:04.403Z,61514.88
2023-01-07T09:04:33.008Z,61521.31
2023-01-07T09:07:01.382Z,61528.28
2023-01-07T09:09:29.687Z,61524.13
2023-01-07T09:11:59.501Z,61531.41
2023-01-07T09:14:28.156Z,61519.59
2023-01-07T09:17:14.834Z,61532.91
2023-01-07T09:19:43.281Z,61530.97
2023-01-07T09:22:11.713Z,61545.25
2023-01-07T09:24:40.162Z,61536.25
2023-01-07T09:27:09.882Z,61532.06
2023-01-07T09:29:38.265Z,61528.41
2023-01-07T09:32:06.891Z,61535.28
2023-01-07T09:34:35.236Z,61534.75
2023-01-07T09:37:03.663Z,61530.97
2023-01-07T09:39:32.029Z,61536.78
2023-01-07T09:42:06.912Z,61547.53
2023-01-07T09:44:58.303Z,61544.84
2023-01-07T09:47:29.178Z,61541.19
2023-01-07T09:50:03.186Z,61547.94
2023-01-07T09:52:38.073Z,61546.44
2023-01-07T09:55:15.869Z,61534.19
2023-01-07T09:57:44.802Z,61548.59
2023-01-07T10:00:20.767Z,61543.22
2023-01-07T10:03:12.802Z,61542.13
2023-01-07T10:05:50.683Z,61546.44
2023-01-07T10:08:32.572Z,61535.28
2023-01-07T10:11:12.178Z,61536.34
2023-01-07T10:13:59.790Z,61538.50
2023-01-07T10:16:38.744Z,61541.72
2023-01-07T10:19:19.846Z,61534.63
2023-01-07T10:21:55.489Z,61538.28
2023-01-07T10:24:28.584Z,61540.44
2023-01-07T10:27:01.690Z,61547.53
2023-01-07T10:29:36.160Z,61545.38
2023-01-07T10:32:13.025Z,61549.13
2023-01-07T10:34:47.668Z,61551.81
2023-01-07T10:37:29.525Z,61557.19
2023-01-07T10:40:22.217Z,61562.03
2023-01-07T10:43:01.067Z,61566.75
2023-01-07T10:45:46.318Z,61569.66
2023-01-07T10:49:03.799Z,61559.34
2023-01-07T10:51:52.219Z,61570.72
2023-01-07T10:54:43.233Z,61563.19
2023-01-07T10:57:17.058Z,61574.91
2023-01-07T10:59:53.647Z,61598.97
2023-01-07T11:02:27.543Z,61587.25
2023-01-07T11:04:59.966Z,61587.94
2023-01-07T11:07:35.306Z,61596.50
2023-01-07T11:10:06.525Z,61616.69
2023-01-07T11:12:39.405Z,61622.06
2023-01-07T11:15:16.658Z,61623.56
2023-01-07T11:17:50.401Z,61628.09
2023-01-07T11:20:46.003Z,61624.34
2023-01-07T11:23:30.986Z,61628.63
2023-01-07T11:26:16.997Z,61623.69
2023-01-07T11:28:53.910Z,61629.84
2023-01-07T11:31:23.239Z,61646.38
2023-01-07T11:34:02.155Z,61649.59
2023-01-07T11:36:43.924Z,61641.44
2023-01-07T11:39:20.210Z,61657.53
2023-01-07T11:41:57.546Z,61657.13
2023-01-07T11:44:27.321Z,61643.59
2023-01-07T11:46:56.704Z,61644.66
2023-01-07T11:49:31.289Z,61628.63
2023-01-07T11:52:01.228Z,61641.66
2023-01-07T11:54:31.894Z,61652.81
2023-01-07T11:57:14.363Z,61650.69
2023-01-07T11:59:42.825Z,61647.44
2023-01-07T12:02:27.895Z,61644.22
2023-01-07T12:05:19.000Z,61650.78
2023-01-07T12:07:50.770Z,61639.91
2023-01-07T12:10:35.304Z,61646.38
2023-01-07T12:13:07.366Z,61641.53
2023-01-07T12:15:50.359Z,61645.72
2023-01-07T12:18:57.590Z,61629.41
2023-01-07T12:21:53.824Z,61629.19
2023-01-07T12:25:08.116Z,61639.28
2023-01-07T12:27:46.523Z,61611.97
2023-01-07T12:30:54.666Z,61616.50
2023-01-07T12:33:42.225Z,61619.94
2023-01-07T12:36:17.286Z,61615.44
2023-01-07T12:38:50.451Z,61615.22
2023-01-07T12:41:24.952Z,61611.13
2023-01-07T12:44:02.956Z,61607.69
2023-01-07T12:46:38.136Z,61605.09
2023-01-07T12:49:13.308Z,61620.16
2023-01-07T12:51:52.111Z,61623.81
2023-01-07T12:54:29.192Z,61617.38
2023-01-07T12:57:06.996Z,61619.94
2023-01-07T12:59:46.964Z,61618.44
2023-01-07T13:02:29.072Z,61618.44
2023-01-07T13:05:11.131Z,61623.16
2023-01-07T13:07:48.833Z,61614.34
2023-01-07T13:10:25.823Z,61612.63
2023-01-07T13:12:59.699Z,61607.25
2023-01-07T13:15:29.977Z,61600.16
2023-01-07T13:18:00.784Z,61605.53
2023-01-07T13:20:51.347Z,61604.44
2023-01-07T13:23:30.389Z,61605.41
2023-01-07T13:26:14.819Z,61595.19
2023-01-07T13:29:32.082Z,61579.31
2023-01-07T13:32:28.058Z,61593.47
2023-01-07T13:35:38.876Z,61581.47
2023-01-07T13:38:32.402Z,61588.88
2023-01-07T13:41:23.726Z,61590.91
2023-01-07T13:44:24.106Z,61591.56
2023-01-07T13:46:53.213Z,61596.41
2023-01-07T13:49:30.003Z,61584.16
2023-01-07T13:52:14.761Z,61587.81
2023-01-07T13:55:01.201Z,61591.56
2023-01-07T13:57:46.231Z,61595.75
2023-01-07T14:00:48.040Z,61585.78
2023-01-07T14:03:42.916Z,61578.69
2023-01-07T14:06:53.792Z,61583.91
2023-01-07T14:09:39.583Z,61594.78
2023-01-07T14:13:10.837Z,61588.47
2023-01-07T14:16:08.135Z,61596.28
2023-01-07T14:19:10.881Z,61596.16
2023-01-07T14:22:07.489Z,61595.44
2023-01-07T14:25:05.498Z,61595.44
2023-01-07T14:28:09.939Z,61613.59
2023-01-07T14:30:46.897Z,61617.47
2023-01-07T14:33:22.728Z,61606.31
2023-01-07T14:35:58.200Z,61605.97
2023-01-07T14:39:20.948Z,61590.19
2023-01-07T14:42:43.968Z,61607.25
2023-01-07T14:45:53.984Z,61611.44
2023-01-07T14:48:36.556Z,61610.69
2023-01-07T14:51:49.016Z,61610.91
2023-01-07T14:55:06.085Z,61607.69
2023-01-07T14:57:49.361Z,61601.34
2023-01-07T15:00:48.705Z,61601.22
2023-01-07T15:03:49.838Z,61593.72
2023-01-07T15:06:30.572Z,61583.63
2023-01-07T15:09:23.524Z,61592.09
2023-01-07T15:12:11.814Z,61586.84
2023-01-07T15:15:05.438Z,61589.09
2023-01-07T15:17:37.442Z,61579.22
2023-01-07T15:20:13.049Z,61566.53
2023-01-07T15:23:05.501Z,61587.25
2023-01-07T15:25:47.433Z,61585.53
2023-01-07T15:28:23.368Z,61587.25
2023-01-07T15:31:02.015Z,61585.78
2023-01-07T15:33:53.896Z,61584.03
2023-01-07T15:36:24.177Z,61581.91
2023-01-07T15:38:55.256Z,61580.16
2023-01-07T15:41:41.654Z,61588.03
2023-01-07T15:44:19.618Z,61582.56
2023-01-07T15:46:48.353Z,61588.47
2023-01-07T15:49:24.204Z,61584.59
2023-01-07T15:51:56.714Z,61582.56
2023-01-07T15:54:32.223Z,61582.00
2023-01-07T15:57:13.614Z,61582.44
2023-01-07T15:59:49.833Z,61585.13
2023-01-07T16:02:27.693Z,61595.75
2023-01-07T16:05:00.925Z,61591.03
2023-01-07T16:07:35.742Z,61581.91
2023-01-07T16:10:06.055Z,61590.50
2023-01-07T16:12:38.487Z,61594.13
2023-01-07T16:15:27.011Z,61591.56
2023-01-07T16:17:57.232Z,61595.63
2023-01-07T16:20:29.808Z,61588.88
2023-01-07T16:23:22.762Z,61589.81
2023-01-07T16:26:02.264Z,61589.00
2023-01-07T16:28:35.210Z,61584.59
2023-01-07T16:31:10.262Z,61579.75
2023-01-07T16:33:39.782Z,61584.16
2023-01-07T16:36:14.087Z,61587.16
2023-01-07T16:38:49.177Z,61585.00
2023-01-07T16:41:22.361Z,61575.44
2023-01-07T16:43:55.125Z,61581.91
2023-01-07T16:46:26.907Z,61561.50
2023-01-07T16:49:21.550Z,61552.66
2023-01-07T16:51:55.843Z,61555.47
2023-01-07T16:54:37.465Z,61551.81
2023-01-07T16:57:16.986Z,61549.03
2023-01-07T16:59:54.162Z,61535.16
2023-01-07T17:02:33.476Z,61538.81
2023-01-07T17:05:19.172Z,61531.41
2023-01-07T17:07:51.257Z,61511.66
2023-01-07T17:10:26.518Z,61508.84
2023-01-07T17:13:00.304Z,61492.44
2023-01-07T17:15:39.464Z,61492.09
2023-01-07T17:18:30.405Z,61468.03
2023-01-07T17:21:00.642Z,61448.31
2023-01-07T17:23:45.539Z,61439.19
2023-01-07T17:26:23.092Z,61433.41
2023-01-07T17:28:54.379Z,61425.66
2023-01-07T17:31:24.057Z,61420.84
2023-01-07T17:33:53.717Z,61413.97
2023-01-07T17:36:24.862Z,61417.63
2023-01-07T17:38:53.691Z,61408.72
2023-01-07T17:41:42.198Z,61404.75
2023-01-07T17:44:14.528Z,61405.28
2023-01-07T17:46:43.777Z,61397.25
2023-01-07T17:49:12.871Z,61392.94
2023-01-07T17:51:44.919Z,61383.97
2023-01-07T17:54:22.767Z,61386.41
2023-01-07T17:56:53.291Z,61381.16
2023-01-07T17:59:24.448Z,61383.06
2023-01-07T18:01:56.643Z,61379.00
2023-01-07T18:04:25.184Z,61374.06
2023-01-07T18:06:53.553Z,61373.66
2023-01-07T18:09:22.070Z,61376.44
2023-01-07T18:12:09.370Z,61373.22
2023-01-07T18:14:37.767Z,61368.28
2023-01-07T18:17:07.442Z,61361.88
2023-01-07T18:19:35.963Z,61358.63
2023-01-07T18:22:04.513Z,61355.41
2023-01-07T18:24:32.950Z,61341.50
2023-01-07T18:27:02.723Z,61340.00
2023-01-07T18:29:31.177Z,61338.50
2023-01-07T18:31:59.946Z,61332.91
2023-01-07T18:34:29.217Z,61328.19
2023-01-07T18:36:58.824Z,61323.94
2023-01-07T18:39:27.508Z,61326.50
2023-01-07T18:41:56.012Z,61317.06
2023-01-07T18:44:27.849Z,61328.19
2023-01-07T18:46:56.340Z,61314.16
2023-01-07T18:49:24.879Z,61307.44
2023-01-07T18:51:53.286Z,61310.41
2023-01-07T18:54:21.919Z,61308.69
2023-01-07T18:56:50.404Z,61305.28
2023-01-07T18:59:19.038Z,61304.47
2023-01-07T19:01:49.042Z,61299.66
2023-01-07T19:04:17.819Z,61295.38
2023-01-07T19:06:46.372Z,61293.91
2023-01-07T19:09:14.948Z,61301.59
2023-01-07T19:11:43.460Z,61288.94
2023-01-07T19:14:14.920Z,61288.53
2023-01-07T19:16:43.598Z,61296.69
2023-01-07T19:19:16.762Z,61284.91
2023-01-07T19:21:46.671Z,61300.75
2023-01-07T19:24:15.065Z,61298.19
2023-01-07T19:26:43.903Z,61290.56
2023-01-07T19:29:14.024Z,61274.19
2023-01-07T19:31:45.640Z,61274.06
2023-01-07T19:34:15.857Z,61278.09
2023-01-07T19:36:47.210Z,61269.78
2023-01-07T19:39:17.656Z,61263.88
2023-01-07T19:41:46.458Z,61259.63
2023-01-07T19:44:15.162Z,61274.38
2023-01-07T19:46:44.151Z,61267.00
2023-01-07T19:49:14.677Z,61263.88
2023-01-07T19:51:43.974Z,61262.41
2023-01-07T19:54:15.988Z,61262.41
2023-01-07T19:56:45.228Z,61262.16
2023-01-07T19:59:13.648Z,61259.63
2023-01-07T20:01:42.266Z,61261.22
2023-01-07T20:04:10.701Z,61273.66
2023-01-07T20:06:41.241Z,61274.59
2023-01-07T20:09:11.613Z,61276.22
2023-01-07T20:11:41.389Z,61269.25
2023-01-07T20:14:10.708Z,61272.88
2023-01-07T20:16:41.681Z,61297.00
2023-01-07T20:19:12.318Z,61299.38
2023-01-07T20:21:42.286Z,61312.00
2023-01-07T20:24:13.174Z,61308.50
2023-01-07T20:26:41.777Z,61319.22
2023-01-07T20:29:10.273Z,61330.22
2023-01-07T20:31:38.872Z,61307.44
2023-01-07T20:34:07.850Z,61300.22
2023-01-07T20:36:36.251Z,61282.66
2023-01-07T20:39:06.391Z,61273.13
2023-01-07T20:41:36.062Z,61259.19
2023-01-07T20:44:07.591Z,61258.97
2023-01-07T20:46:36.326Z,61261.75
2023-01-07T20:49:04.800Z,61290.00
2023-01-07T20:51:33.946Z,61302.34
2023-01-07T20:54:02.372Z,61315.34
2023-01-07T20:56:32.870Z,61331.81
2023-01-07T20:59:02.673Z,61351.66
2023-01-07T21:01:31.357Z,61366.78
2023-01-07T21:04:01.914Z,61343.84
2023-01-07T21:06:30.557Z,61326.59
2023-01-07T21:08:59.130Z,61309.34
2023-01-07T21:11:27.553Z,61291.34
2023-01-07T21:13:57.528Z,61287.03
2023-01-07T21:16:27.483Z,61290.66
2023-01-07T21:18:56.414Z,61277.56
2023-01-07T21:21:25.709Z,61267.66
2023-01-07T21:23:55.176Z,61271.41
2023-01-07T21:26:24.963Z,61261.75
2023-01-07T21:28:56.593Z,61282.53
2023-01-07T21:31:27.202Z,61285.31
2023-01-07T21:33:57.597Z,61304.47
2023-01-07T21:36:28.245Z,61313.06
2023-01-07T21:38:58.922Z,61311.06
2023-01-07T21:41:29.563Z,61330.13
2023-01-07T21:43:59.385Z,61305.00
2023-01-07T21:46:27.970Z,61318.97
2023-01-07T21:48:56.403Z,61318.44
2023-01-07T21:51:27.844Z,61298.72
2023-01-07T21:53:57.852Z,61298.06
2023-01-07T21:56:30.078Z,61278.88
2023-01-07T21:59:00.211Z,61279.84
2023-01-07T22:01:29.451Z,61271.81
2023-01-07T22:03:59.916Z,61276.75
2023-01-07T22:06:31.710Z,61259.06
2023-01-07T22:09:02.339Z,61263.66
2023-01-07T22:11:31.007Z,61261.75
2023-01-07T22:14:01.843Z,61269.69
2023-01-07T22:16:32.962Z,61278.78
2023-01-07T22:19:03.019Z,61300.75
2023-01-07T22:21:32.116Z,61311.06
2023-01-07T22:24:01.769Z,61298.84
2023-01-07T22:26:30.432Z,61324.34
2023-01-07T22:29:03.512Z,61348.97
2023-01-07T22:31:36.542Z,61360.25
2023-01-07T22:34:06.441Z,61373.75
2023-01-07T22:36:41.671Z,61382.88
2023-01-07T22:39:15.575Z,61386.94
2023-01-07T22:41:45.239Z,61408.38
2023-01-07T22:44:21.685Z,61414.41
2023-01-07T22:46:53.421Z,61418.81
2023-01-07T22:49:25.681Z,61405.53
2023-01-07T22:51:54.765Z,61415.91
2023-01-07T22:54:23.430Z,61413.22
2023-01-07T22:56:52.448Z,61415.03
2023-01-07T22:59:22.243Z,61408.72
2023-01-07T23:01:50.649Z,61413.22
2023-01-07T23:04:19.085Z,61417.63
2023-01-07T23:06:47.497Z,61424.06
2023-01-07T23:09:17.994Z,61418.16
2023-01-07T23:11:49.447Z,61418.25
2023-01-07T23:14:19.819Z,61433.72
2023-01-07T23:16:50.305Z,61427.94
2023-01-07T23:19:20.023Z,61432.63
2023-01-07T23:21:51.598Z,61428.59
2023-01-07T23:24:20.482Z,61437.88
2023-01-07T23:26:50.317Z,61436.94
2023-01-07T23:29:20.160Z,61432.88
2023-01-07T23:31:50.378Z,61430.06
2023-01-07T23:34:18.837Z,61433.31
2023-01-07T23:36:47.228Z,61435.19
2023-01-07T23:39:15.924Z,61431.81
2023-01-07T23:41:44.304Z,61435.97
2023-01-07T23:44:12.713Z,61434.78
2023-01-07T23:46:41.113Z,61432.63
2023-01-07T23:49:11.019Z,61432.88
2023-01-07T23:51:41.278Z,61439.09
2023-01-07T23:54:09.778Z,61435.88
2023-01-07T23:56:38.156Z,61433.84
2023-01-07T23:59:06.727Z,61433.06
